createdAt,value
2018-03-20T00:00:34.027Z,1006.28
2018-03-20T00:01:34.657Z,1006.26
2018-03-20T00:02:35.262Z,1006.30
2018-03-20T00:03:35.846Z,1006.36
2018-03-20T00:04:36.449Z,1006.40
2018-03-20T00:05:37.202Z,1006.40
2018-03-20T00:06:37.876Z,1006.39
2018-03-20T00:07:38.620Z,1006.39
2018-03-20T00:08:39.319Z,1006.42
2018-03-20T00:09:40.058Z,1006.42
2018-03-20T00:10:40.794Z,1006.39
2018-03-20T00:11:41.450Z,1006.43
2018-03-20T00:12:42.046Z,1006.43
2018-03-20T00:13:42.672Z,1006.44
2018-03-20T00:14:43.317Z,1006.41
2018-03-20T00:15:44.010Z,1006.39
2018-03-20T00:16:44.697Z,1006.36
2018-03-20T00:17:45.338Z,1006.38
2018-03-20T00:18:46.024Z,1006.42
2018-03-20T00:19:46.687Z,1006.41
2018-03-20T00:20:47.421Z,1006.44
2018-03-20T00:21:47.970Z,1006.37
2018-03-20T00:22:48.686Z,1006.39
2018-03-20T00:23:49.405Z,1006.39
2018-03-20T00:24:50.017Z,1006.39
2018-03-20T00:25:50.633Z,1006.41
2018-03-20T00:26:51.319Z,1006.34
2018-03-20T00:27:51.983Z,1006.40
2018-03-20T00:28:52.724Z,1006.42
2018-03-20T00:29:53.316Z,1006.41
2018-03-20T00:30:54.023Z,1006.38
2018-03-20T00:31:54.658Z,1006.43
2018-03-20T00:32:55.428Z,1006.40
2018-03-20T00:33:56.117Z,1006.38
2018-03-20T00:34:56.747Z,1006.41
2018-03-20T00:35:57.385Z,1006.36
2018-03-20T00:36:58.034Z,1006.39
2018-03-20T00:37:58.691Z,1006.39
2018-03-20T00:38:59.439Z,1006.38
2018-03-20T00:40:00.050Z,1006.36
2018-03-20T00:41:00.749Z,1006.38
2018-03-20T00:42:01.467Z,1006.34
2018-03-20T00:43:02.067Z,1006.37
2018-03-20T00:44:02.724Z,1006.42
2018-03-20T00:45:03.428Z,1006.46
2018-03-20T00:46:04.118Z,1006.47
2018-03-20T00:47:04.928Z,1006.48
2018-03-20T00:48:05.588Z,1006.46
2018-03-20T00:49:06.217Z,1006.48
2018-03-20T00:50:06.869Z,1006.46
2018-03-20T00:51:07.462Z,1006.47
2018-03-20T00:52:08.103Z,1006.50
2018-03-20T00:53:08.660Z,1006.48
2018-03-20T00:54:09.400Z,1006.46
2018-03-20T00:55:10.020Z,1006.50
2018-03-20T00:56:10.698Z,1006.56
2018-03-20T00:57:11.399Z,1006.55
2018-03-20T00:58:12.020Z,1006.54
2018-03-20T00:59:12.734Z,1006.58
2018-03-20T01:00:13.428Z,1006.61
2018-03-20T01:01:14.045Z,1006.67
2018-03-20T01:02:14.697Z,1006.63
2018-03-20T01:03:15.247Z,1006.63
2018-03-20T01:04:15.831Z,1006.62
2018-03-20T01:05:16.427Z,1006.64
2018-03-20T01:06:17.150Z,1006.59
2018-03-20T01:07:17.789Z,1006.63
2018-03-20T01:08:18.454Z,1006.63
2018-03-20T01:09:19.086Z,1006.60
2018-03-20T01:10:19.736Z,1006.60
2018-03-20T01:11:20.431Z,1006.60
2018-03-20T01:12:21.076Z,1006.60
2018-03-20T01:13:21.721Z,1006.64
2018-03-20T01:14:22.401Z,1006.58
2018-03-20T01:15:23.079Z,1006.59
2018-03-20T01:16:23.709Z,1006.58
2018-03-20T01:17:24.332Z,1006.63
2018-03-20T01:18:24.976Z,1006.59
2018-03-20T01:19:25.649Z,1006.64
2018-03-20T01:20:26.162Z,1006.63
2018-03-20T01:21:26.807Z,1006.64
2018-03-20T01:22:27.495Z,1006.63
2018-03-20T01:23:28.119Z,1006.61
2018-03-20T01:24:28.762Z,1006.61
2018-03-20T01:25:29.452Z,1006.63
2018-03-20T01:26:30.037Z,1006.62
2018-03-20T01:27:30.750Z,1006.62
2018-03-20T01:28:31.406Z,1006.61
2018-03-20T01:29:32.045Z,1006.62
2018-03-20T01:30:32.703Z,1006.64
2018-03-20T01:31:33.409Z,1006.63
2018-03-20T01:32:33.995Z,1006.67
2018-03-20T01:33:34.655Z,1006.63
2018-03-20T01:34:35.283Z,1006.63
2018-03-20T01:35:35.844Z,1006.66
2018-03-20T01:36:36.545Z,1006.62
2018-03-20T01:37:37.201Z,1006.70
2018-03-20T01:38:38.097Z,1006.64
2018-03-20T01:39:38.742Z,1006.70
2018-03-20T01:40:39.413Z,1006.68
2018-03-20T01:41:40.186Z,1006.71
2018-03-20T01:42:40.848Z,1006.66
2018-03-20T01:43:41.511Z,1006.64
2018-03-20T01:44:42.135Z,1006.65
2018-03-20T01:45:42.792Z,1006.63
2018-03-20T01:46:43.454Z,1006.64
2018-03-20T01:47:44.220Z,1006.62
2018-03-20T01:48:44.842Z,1006.66
2018-03-20T01:49:45.436Z,1006.72
2018-03-20T01:50:46.049Z,1006.73
2018-03-20T01:51:46.654Z,1006.77
2018-03-20T01:52:47.327Z,1006.79
2018-03-20T01:53:47.959Z,1006.78
2018-03-20T01:54:48.568Z,1006.80
2018-03-20T01:55:49.185Z,1006.78
2018-03-20T01:56:49.852Z,1006.78
2018-03-20T01:57:50.552Z,1006.83
2018-03-20T01:58:51.174Z,1006.79
2018-03-20T01:59:51.832Z,1006.76
2018-03-20T02:00:52.491Z,1006.72
2018-03-20T02:01:53.130Z,1006.68
2018-03-20T02:02:53.809Z,1006.64
2018-03-20T02:03:54.417Z,1006.63
2018-03-20T02:04:55.097Z,1006.66
2018-03-20T02:05:55.663Z,1006.72
2018-03-20T02:06:56.321Z,1006.65
2018-03-20T02:07:56.928Z,1006.65
2018-03-20T02:08:57.581Z,1006.63
2018-03-20T02:09:58.247Z,1006.65
2018-03-20T02:10:58.932Z,1006.66
2018-03-20T02:11:59.560Z,1006.63
2018-03-20T02:13:00.160Z,1006.60
2018-03-20T02:14:00.760Z,1006.58
2018-03-20T02:15:01.348Z,1006.59
2018-03-20T02:16:01.948Z,1006.58
2018-03-20T02:17:02.552Z,1006.62
2018-03-20T02:18:03.170Z,1006.71
2018-03-20T02:19:03.744Z,1006.70
2018-03-20T02:20:04.342Z,1006.72
2018-03-20T02:21:04.938Z,1006.72
2018-03-20T02:22:05.536Z,1006.77
2018-03-20T02:23:06.121Z,1006.77
2018-03-20T02:24:06.718Z,1006.73
2018-03-20T02:25:07.322Z,1006.66
2018-03-20T02:26:07.922Z,1006.66
2018-03-20T02:27:08.508Z,1006.64
2018-03-20T02:28:09.104Z,1006.61
2018-03-20T02:29:09.690Z,1006.63
2018-03-20T02:30:10.312Z,1006.63
2018-03-20T02:31:10.884Z,1006.67
2018-03-20T02:32:11.476Z,1006.69
2018-03-20T02:33:12.092Z,1006.67
2018-03-20T02:34:12.669Z,1006.66
2018-03-20T02:35:13.247Z,1006.72
2018-03-20T02:36:13.838Z,1006.73
2018-03-20T02:37:14.439Z,1006.70
2018-03-20T02:38:15.031Z,1006.67
2018-03-20T02:39:15.638Z,1006.65
2018-03-20T02:40:16.243Z,1006.71
2018-03-20T02:41:16.869Z,1006.72
2018-03-20T02:42:17.446Z,1006.76
2018-03-20T02:43:18.049Z,1006.72
2018-03-20T02:44:18.654Z,1006.71
2018-03-20T02:45:19.249Z,1006.80
2018-03-20T02:46:19.853Z,1006.82
2018-03-20T02:47:20.443Z,1006.85
2018-03-20T02:48:21.058Z,1006.89
2018-03-20T02:49:21.641Z,1006.83
2018-03-20T02:50:22.239Z,1006.88
2018-03-20T02:51:22.833Z,1006.85
2018-03-20T02:52:23.434Z,1006.86
2018-03-20T02:53:24.022Z,1006.80
2018-03-20T02:54:24.625Z,1006.87
2018-03-20T02:55:25.218Z,1006.86
2018-03-20T02:56:25.822Z,1006.87
2018-03-20T02:57:26.418Z,1006.89
2018-03-20T02:58:27.018Z,1006.87
2018-03-20T02:59:27.608Z,1006.88
2018-03-20T03:00:28.197Z,1006.84
2018-03-20T03:01:28.794Z,1006.81
2018-03-20T03:02:29.380Z,1006.79
2018-03-20T03:03:29.986Z,1006.79
2018-03-20T03:04:30.568Z,1006.80
2018-03-20T03:05:31.171Z,1006.77
2018-03-20T03:06:31.765Z,1006.78
2018-03-20T03:07:32.361Z,1006.75
2018-03-20T03:08:32.955Z,1006.77
2018-03-20T03:09:33.574Z,1006.75
2018-03-20T03:10:34.150Z,1006.73
2018-03-20T03:11:34.751Z,1006.74
2018-03-20T03:12:35.342Z,1006.80
2018-03-20T03:13:35.932Z,1006.83
2018-03-20T03:14:36.524Z,1006.86
2018-03-20T03:15:37.122Z,1006.85
2018-03-20T03:16:37.743Z,1006.87
2018-03-20T03:17:38.320Z,1006.90
2018-03-20T03:18:38.917Z,1006.91
2018-03-20T03:19:39.510Z,1006.86
2018-03-20T03:20:40.097Z,1006.90
2018-03-20T03:21:40.695Z,1006.85
2018-03-20T03:22:41.288Z,1006.87
2018-03-20T03:23:41.902Z,1006.80
2018-03-20T03:24:42.494Z,1006.81
2018-03-20T03:25:43.076Z,1006.78
2018-03-20T03:26:43.669Z,1006.76
2018-03-20T03:27:44.259Z,1006.71
2018-03-20T03:28:44.892Z,1006.72
2018-03-20T03:29:45.449Z,1006.64
2018-03-20T03:30:46.061Z,1006.50
2018-03-20T03:31:46.640Z,1006.47
2018-03-20T03:32:47.237Z,1006.45
2018-03-20T03:33:47.808Z,1006.49
2018-03-20T03:34:48.410Z,1006.53
2018-03-20T03:35:49.002Z,1006.54
2018-03-20T03:36:49.588Z,1006.51
2018-03-20T03:37:50.189Z,1006.55
2018-03-20T03:38:50.779Z,1006.60
2018-03-20T03:39:51.377Z,1006.60
2018-03-20T03:40:51.975Z,1006.51
2018-03-20T03:41:52.582Z,1006.47
2018-03-20T03:42:53.169Z,1006.52
2018-03-20T03:43:53.758Z,1006.60
2018-03-20T03:44:54.352Z,1006.68
2018-03-20T03:45:54.941Z,1006.70
2018-03-20T03:46:55.523Z,1006.72
2018-03-20T03:47:56.113Z,1006.76
2018-03-20T03:48:56.705Z,1006.74
2018-03-20T03:49:57.299Z,1006.78
2018-03-20T03:50:57.891Z,1006.70
2018-03-20T03:51:58.500Z,1006.75
2018-03-20T03:52:59.106Z,1006.72
2018-03-20T03:53:59.673Z,1006.69
2018-03-20T03:55:00.259Z,1006.68
2018-03-20T03:56:00.854Z,1006.67
2018-03-20T03:57:01.454Z,1006.69
2018-03-20T03:58:02.053Z,1006.68
2018-03-20T03:59:02.657Z,1006.73
2018-03-20T04:00:03.252Z,1006.71
2018-03-20T04:01:03.862Z,1006.73
2018-03-20T04:02:04.459Z,1006.76
2018-03-20T04:03:05.056Z,1006.79
2018-03-20T04:04:05.662Z,1006.76
2018-03-20T04:05:06.264Z,1006.75
2018-03-20T04:06:06.871Z,1006.74
2018-03-20T04:07:07.446Z,1006.77
2018-03-20T04:08:08.036Z,1006.75
2018-03-20T04:09:08.631Z,1006.74
2018-03-20T04:10:09.218Z,1006.76
2018-03-20T04:11:09.820Z,1006.76
2018-03-20T04:12:10.408Z,1006.70
2018-03-20T04:13:11.000Z,1006.68
2018-03-20T04:14:11.608Z,1006.72
2018-03-20T04:15:12.199Z,1006.69
2018-03-20T04:16:12.798Z,1006.67
2018-03-20T04:17:13.407Z,1006.67
2018-03-20T04:18:14.000Z,1006.69
2018-03-20T04:19:14.572Z,1006.69
2018-03-20T04:20:15.164Z,1006.74
2018-03-20T04:21:15.758Z,1006.70
2018-03-20T04:22:16.356Z,1006.71
2018-03-20T04:23:16.949Z,1006.76
2018-03-20T04:24:17.537Z,1006.76
2018-03-20T04:25:18.135Z,1006.80
2018-03-20T04:26:18.735Z,1006.77
2018-03-20T04:27:19.334Z,1006.78
2018-03-20T04:28:19.954Z,1006.75
2018-03-20T04:29:20.524Z,1006.76
2018-03-20T04:30:21.113Z,1006.77
2018-03-20T04:31:21.713Z,1006.79
2018-03-20T04:32:22.310Z,1006.76
2018-03-20T04:33:22.907Z,1006.77
2018-03-20T04:34:23.503Z,1006.75
2018-03-20T04:35:24.112Z,1006.75
2018-03-20T04:36:24.683Z,1006.74
2018-03-20T04:37:25.292Z,1006.73
2018-03-20T04:38:25.893Z,1006.74
2018-03-20T04:39:26.495Z,1006.73
2018-03-20T04:40:27.095Z,1006.80
2018-03-20T04:41:27.687Z,1006.74
2018-03-20T04:42:28.281Z,1006.76
2018-03-20T04:43:28.905Z,1006.73
2018-03-20T04:44:29.479Z,1006.75
2018-03-20T04:45:30.086Z,1006.75
2018-03-20T04:46:30.678Z,1006.75
2018-03-20T04:47:31.264Z,1006.72
2018-03-20T04:48:31.845Z,1006.70
2018-03-20T04:49:32.450Z,1006.67
2018-03-20T04:50:33.045Z,1006.65
2018-03-20T04:51:33.644Z,1006.66
2018-03-20T04:52:34.243Z,1006.68
2018-03-20T04:53:34.828Z,1006.70
2018-03-20T04:54:35.424Z,1006.65
2018-03-20T04:55:36.008Z,1006.67
2018-03-20T04:56:36.618Z,1006.62
2018-03-20T04:57:37.207Z,1006.62
2018-03-20T04:58:37.825Z,1006.62
2018-03-20T04:59:38.405Z,1006.58
2018-03-20T05:00:39.000Z,1006.61
2018-03-20T05:01:39.589Z,1006.65
2018-03-20T05:02:40.241Z,1006.62
2018-03-20T05:03:40.795Z,1006.62
2018-03-20T05:04:41.400Z,1006.64
2018-03-20T05:05:41.988Z,1006.64
2018-03-20T05:06:42.589Z,1006.63
2018-03-20T05:07:43.176Z,1006.66
2018-03-20T05:08:43.776Z,1006.69
2018-03-20T05:09:44.377Z,1006.65
2018-03-20T05:10:44.983Z,1006.67
2018-03-20T05:11:45.597Z,1006.66
2018-03-20T05:12:46.184Z,1006.68
2018-03-20T05:13:46.767Z,1006.69
2018-03-20T05:14:47.368Z,1006.67
2018-03-20T05:15:47.966Z,1006.65
2018-03-20T05:16:48.557Z,1006.63
2018-03-20T05:17:49.165Z,1006.64
2018-03-20T05:18:49.765Z,1006.67
2018-03-20T05:19:50.356Z,1006.68
2018-03-20T05:20:50.964Z,1006.66
2018-03-20T05:21:51.585Z,1006.69
2018-03-20T05:22:52.155Z,1006.71
2018-03-20T05:23:52.768Z,1006.68
2018-03-20T05:24:53.353Z,1006.73
2018-03-20T05:25:53.955Z,1006.69
2018-03-20T05:26:54.557Z,1006.73
2018-03-20T05:27:55.159Z,1006.78
2018-03-20T05:28:55.793Z,1006.72
2018-03-20T05:29:56.349Z,1006.72
2018-03-20T05:30:56.949Z,1006.73
2018-03-20T05:31:57.558Z,1006.72
2018-03-20T05:32:58.139Z,1006.66
2018-03-20T05:33:58.733Z,1006.71
2018-03-20T05:34:59.338Z,1006.69
2018-03-20T05:35:59.928Z,1006.72
2018-03-20T05:37:00.533Z,1006.75
2018-03-20T05:38:01.143Z,1006.70
2018-03-20T05:39:01.741Z,1006.69
2018-03-20T05:40:02.340Z,1006.72
2018-03-20T05:41:02.941Z,1006.75
2018-03-20T05:42:03.544Z,1006.77
2018-03-20T05:43:04.157Z,1006.76
2018-03-20T05:44:04.753Z,1006.75
2018-03-20T05:45:05.350Z,1006.74
2018-03-20T05:46:05.954Z,1006.72
2018-03-20T05:47:06.543Z,1006.71
2018-03-20T05:48:07.147Z,1006.77
2018-03-20T05:49:07.754Z,1006.79
2018-03-20T05:50:08.356Z,1006.74
2018-03-20T05:51:08.967Z,1006.75
2018-03-20T05:52:09.550Z,1006.80
2018-03-20T05:53:10.151Z,1006.81
2018-03-20T05:54:10.735Z,1006.79
2018-03-20T05:55:11.325Z,1006.78
2018-03-20T05:56:11.929Z,1006.76
2018-03-20T05:57:12.530Z,1006.77
2018-03-20T05:58:13.144Z,1006.76
2018-03-20T05:59:13.742Z,1006.73
2018-03-20T06:00:14.344Z,1006.75
2018-03-20T06:01:14.953Z,1006.72
2018-03-20T06:02:15.560Z,1006.72
2018-03-20T06:03:16.146Z,1006.78
2018-03-20T06:04:16.745Z,1006.76
2018-03-20T06:05:17.348Z,1006.78
2018-03-20T06:06:18.024Z,1006.78
2018-03-20T06:07:18.557Z,1006.78
2018-03-20T06:08:19.159Z,1006.78
2018-03-20T06:09:19.761Z,1006.80
2018-03-20T06:10:20.368Z,1006.83
2018-03-20T06:11:20.991Z,1006.85
2018-03-20T06:12:21.649Z,1006.84
2018-03-20T06:13:22.196Z,1006.87
2018-03-20T06:14:22.848Z,1006.89
2018-03-20T06:15:23.499Z,1006.85
2018-03-20T06:16:24.071Z,1006.90
2018-03-20T06:17:24.662Z,1006.92
2018-03-20T06:18:25.259Z,1006.92
2018-03-20T06:19:25.868Z,1006.92
2018-03-20T06:20:26.474Z,1006.91
2018-03-20T06:21:27.061Z,1006.92
2018-03-20T06:22:27.645Z,1006.96
2018-03-20T06:23:28.247Z,1006.94
2018-03-20T06:24:28.852Z,1006.97
2018-03-20T06:25:29.452Z,1006.99
2018-03-20T06:26:30.044Z,1007.02
2018-03-20T06:27:30.637Z,1007.03
2018-03-20T06:28:31.240Z,1007.07
2018-03-20T06:29:31.831Z,1007.06
2018-03-20T06:30:32.460Z,1007.05
2018-03-20T06:31:33.047Z,1007.09
2018-03-20T06:32:33.645Z,1007.06
2018-03-20T06:33:34.247Z,1007.09
2018-03-20T06:34:34.855Z,1007.06
2018-03-20T06:35:35.442Z,1007.07
2018-03-20T06:36:36.044Z,1007.11
2018-03-20T06:37:36.650Z,1007.18
2018-03-20T06:38:37.257Z,1007.16
2018-03-20T06:39:37.861Z,1007.18
2018-03-20T06:40:38.472Z,1007.17
2018-03-20T06:41:39.069Z,1007.11
2018-03-20T06:42:39.665Z,1007.13
2018-03-20T06:43:40.384Z,1007.14
2018-03-20T06:44:40.935Z,1007.17
2018-03-20T06:45:41.532Z,1007.19
2018-03-20T06:46:42.139Z,1007.22
2018-03-20T06:47:42.737Z,1007.25
2018-03-20T06:48:43.328Z,1007.27
2018-03-20T06:49:43.925Z,1007.30
2018-03-20T06:50:44.536Z,1007.29
2018-03-20T06:51:45.117Z,1007.29
2018-03-20T06:52:45.713Z,1007.27
2018-03-20T06:53:46.338Z,1007.29
2018-03-20T06:54:46.906Z,1007.31
2018-03-20T06:55:47.632Z,1007.32
2018-03-20T06:56:48.323Z,1007.32
2018-03-20T06:57:49.082Z,1007.35
2018-03-20T06:58:49.742Z,1007.36
2018-03-20T06:59:50.404Z,1007.39
2018-03-20T07:00:51.194Z,1007.35
2018-03-20T07:01:52.760Z,1007.37
2018-03-20T07:02:53.428Z,1007.39
2018-03-20T07:03:54.105Z,1007.35
2018-03-20T07:04:54.750Z,1007.37
2018-03-20T07:05:55.321Z,1007.37
2018-03-20T07:06:56.027Z,1007.41
2018-03-20T07:07:56.695Z,1007.40
2018-03-20T07:08:57.370Z,1007.40
2018-03-20T07:09:58.035Z,1007.46
2018-03-20T07:10:58.720Z,1007.49
2018-03-20T07:11:59.343Z,1007.47
2018-03-20T07:13:00.007Z,1007.49
2018-03-20T07:14:00.676Z,1007.50
2018-03-20T07:15:01.363Z,1007.56
2018-03-20T07:16:02.036Z,1007.57
2018-03-20T07:17:02.666Z,1007.57
2018-03-20T07:18:03.359Z,1007.56
2018-03-20T07:19:03.975Z,1007.59
2018-03-20T07:20:04.599Z,1007.58
2018-03-20T07:21:05.180Z,1007.58
2018-03-20T07:22:05.895Z,1007.65
2018-03-20T07:23:06.613Z,1007.68
2018-03-20T07:24:07.227Z,1007.64
2018-03-20T07:25:07.919Z,1007.69
2018-03-20T07:26:08.567Z,1007.71
2018-03-20T07:27:09.170Z,1007.77
2018-03-20T07:28:09.859Z,1007.78
2018-03-20T07:29:10.524Z,1007.83
2018-03-20T07:30:11.194Z,1007.80
2018-03-20T07:31:11.855Z,1007.80
2018-03-20T07:32:12.536Z,1007.81
2018-03-20T07:33:13.156Z,1007.84
2018-03-20T07:34:13.875Z,1007.83
2018-03-20T07:35:14.514Z,1007.91
2018-03-20T07:36:15.174Z,1007.86
2018-03-20T07:37:15.760Z,1007.86
2018-03-20T07:38:16.442Z,1007.87
2018-03-20T07:39:17.126Z,1007.83
2018-03-20T07:40:17.814Z,1007.90
2018-03-20T07:41:18.480Z,1007.93
2018-03-20T07:42:19.099Z,1007.94
2018-03-20T07:43:19.686Z,1007.91
2018-03-20T07:44:20.454Z,1007.95
2018-03-20T07:45:21.164Z,1007.98
2018-03-20T07:46:21.861Z,1007.99
2018-03-20T07:47:22.554Z,1008.00
2018-03-20T07:48:23.274Z,1007.99
2018-03-20T07:49:23.861Z,1007.97
2018-03-20T07:50:24.523Z,1007.98
2018-03-20T07:51:25.256Z,1008.01
2018-03-20T07:52:25.925Z,1008.02
2018-03-20T07:53:26.517Z,1008.03
2018-03-20T07:54:27.219Z,1008.09
2018-03-20T07:55:27.885Z,1008.12
2018-03-20T07:56:28.594Z,1008.10
2018-03-20T07:57:29.247Z,1008.09
2018-03-20T07:58:29.935Z,1008.07
2018-03-20T07:59:30.588Z,1008.11
2018-03-20T08:00:31.290Z,1008.15
2018-03-20T08:01:31.954Z,1008.16
2018-03-20T08:02:32.626Z,1008.17
2018-03-20T08:03:33.296Z,1008.15
2018-03-20T08:04:34.005Z,1008.16
2018-03-20T08:05:34.663Z,1008.17
2018-03-20T08:06:35.334Z,1008.15
2018-03-20T08:07:35.999Z,1008.14
2018-03-20T08:08:36.580Z,1008.21
2018-03-20T08:09:37.298Z,1008.25
2018-03-20T08:10:37.878Z,1008.26
2018-03-20T08:11:38.584Z,1008.24
2018-03-20T08:12:39.270Z,1008.22
2018-03-20T08:13:39.975Z,1008.23
2018-03-20T08:14:40.664Z,1008.20
2018-03-20T08:15:41.304Z,1008.27
2018-03-20T08:16:41.998Z,1008.27
2018-03-20T08:17:42.658Z,1008.22
2018-03-20T08:18:43.361Z,1008.23
2018-03-20T08:19:44.291Z,1008.22
2018-03-20T08:20:44.934Z,1008.26
2018-03-20T08:21:45.503Z,1008.20
2018-03-20T08:22:46.209Z,1008.16
2018-03-20T08:23:46.869Z,1008.18
2018-03-20T08:24:47.465Z,1008.23
2018-03-20T08:25:48.122Z,1008.24
2018-03-20T08:26:48.813Z,1008.25
2018-03-20T08:27:49.476Z,1008.29
2018-03-20T08:28:50.096Z,1008.30
2018-03-20T08:29:50.704Z,1008.33
2018-03-20T08:30:51.405Z,1008.32
2018-03-20T08:31:52.066Z,1008.33
2018-03-20T08:32:52.695Z,1008.30
2018-03-20T08:33:53.389Z,1008.30
2018-03-20T08:34:54.109Z,1008.33
2018-03-20T08:35:54.795Z,1008.36
2018-03-20T08:36:55.469Z,1008.39
2018-03-20T08:37:56.060Z,1008.37
2018-03-20T08:38:56.769Z,1008.33
2018-03-20T08:39:57.446Z,1008.34
2018-03-20T08:40:58.039Z,1008.38
2018-03-20T08:41:58.637Z,1008.38
2018-03-20T08:42:59.302Z,1008.38
2018-03-20T08:43:59.991Z,1008.40
2018-03-20T08:45:00.615Z,1008.44
2018-03-20T08:46:01.244Z,1008.37
2018-03-20T08:47:01.806Z,1008.36
2018-03-20T08:48:02.542Z,1008.40
2018-03-20T08:49:03.183Z,1008.42
2018-03-20T08:50:03.794Z,1008.44
2018-03-20T08:51:04.490Z,1008.46
2018-03-20T08:52:05.187Z,1008.44
2018-03-20T08:53:05.878Z,1008.45
2018-03-20T08:54:06.483Z,1008.37
2018-03-20T08:55:07.175Z,1008.45
2018-03-20T08:56:07.869Z,1008.37
2018-03-20T08:57:08.513Z,1008.40
2018-03-20T08:58:09.280Z,1008.44
2018-03-20T08:59:09.849Z,1008.45
2018-03-20T09:00:10.598Z,1008.49
2018-03-20T09:01:11.236Z,1008.46
2018-03-20T09:02:11.873Z,1008.51
2018-03-20T09:03:12.537Z,1008.64
2018-03-20T09:04:13.232Z,1008.58
2018-03-20T09:05:13.918Z,1008.60
2018-03-20T09:06:14.547Z,1008.64
2018-03-20T09:07:15.249Z,1008.65
2018-03-20T09:08:15.879Z,1008.61
2018-03-20T09:09:16.568Z,1008.69
2018-03-20T09:10:17.243Z,1008.68
2018-03-20T09:11:17.895Z,1008.73
2018-03-20T09:12:18.602Z,1008.68
2018-03-20T09:13:19.281Z,1008.73
2018-03-20T09:14:20.058Z,1008.81
2018-03-20T09:15:20.729Z,1008.86
2018-03-20T09:16:21.798Z,1008.90
2018-03-20T09:17:22.540Z,1008.84
2018-03-20T09:18:23.452Z,1008.90
2018-03-20T09:19:24.144Z,1008.91
2018-03-20T09:20:24.817Z,1008.89
2018-03-20T09:21:25.492Z,1008.90
2018-03-20T09:22:26.155Z,1008.95
2018-03-20T09:23:26.817Z,1009.01
2018-03-20T09:24:27.745Z,1009.05
2018-03-20T09:25:28.378Z,1009.06
2018-03-20T09:26:29.056Z,1009.09
2018-03-20T09:27:29.824Z,1009.07
2018-03-20T09:28:30.551Z,1009.11
2018-03-20T09:29:31.317Z,1009.11
2018-03-20T09:30:32.005Z,1009.09
2018-03-20T09:31:32.587Z,1009.09
2018-03-20T09:32:33.319Z,1009.16
2018-03-20T09:33:33.960Z,1009.15
2018-03-20T09:34:34.662Z,1009.16
2018-03-20T09:35:35.292Z,1009.15
2018-03-20T09:36:35.963Z,1009.16
2018-03-20T09:37:36.632Z,1009.18
2018-03-20T09:38:37.260Z,1009.20
2018-03-20T09:39:37.887Z,1009.21
2018-03-20T09:40:38.529Z,1009.18
2018-03-20T09:41:39.202Z,1009.24
2018-03-20T09:42:39.872Z,1009.25
2018-03-20T09:43:40.577Z,1009.26
2018-03-20T09:44:41.423Z,1009.24
2018-03-20T09:45:42.162Z,1009.25
2018-03-20T09:46:42.817Z,1009.24
2018-03-20T09:47:43.469Z,1009.27
2018-03-20T09:48:44.141Z,1009.29
2018-03-20T09:49:44.783Z,1009.33
2018-03-20T09:50:45.387Z,1009.33
2018-03-20T09:51:45.989Z,1009.27
2018-03-20T09:52:46.700Z,1009.30
2018-03-20T09:53:47.331Z,1009.28
2018-03-20T09:54:48.027Z,1009.30
2018-03-20T09:55:48.659Z,1009.33
2018-03-20T09:56:49.298Z,1009.35
2018-03-20T09:57:49.989Z,1009.34
2018-03-20T09:58:50.625Z,1009.36
2018-03-20T09:59:51.396Z,1009.38
2018-03-20T10:00:52.097Z,1009.37
2018-03-20T10:01:52.767Z,1009.40
2018-03-20T10:02:53.442Z,1009.44
2018-03-20T10:03:54.066Z,1009.38
2018-03-20T10:04:54.729Z,1009.41
2018-03-20T10:05:55.398Z,1009.44
2018-03-20T10:06:56.033Z,1009.49
2018-03-20T10:07:56.658Z,1009.48
2018-03-20T10:08:57.280Z,1009.56
2018-03-20T10:09:57.923Z,1009.50
2018-03-20T10:10:58.632Z,1009.57
2018-03-20T10:11:59.337Z,1009.49
2018-03-20T10:13:00.036Z,1009.53
2018-03-20T10:14:00.703Z,1009.50
2018-03-20T10:15:01.378Z,1009.54
2018-03-20T10:16:02.019Z,1009.49
2018-03-20T10:17:02.736Z,1009.56
2018-03-20T10:18:03.406Z,1009.60
2018-03-20T10:19:04.061Z,1009.62
2018-03-20T10:20:04.777Z,1009.67
2018-03-20T10:21:05.436Z,1009.67
2018-03-20T10:22:06.059Z,1009.70
2018-03-20T10:23:06.750Z,1009.68
2018-03-20T10:24:07.438Z,1009.74
2018-03-20T10:25:08.091Z,1009.72
2018-03-20T10:26:08.759Z,1009.82
2018-03-20T10:27:09.434Z,1009.77
2018-03-20T10:28:10.085Z,1009.82
2018-03-20T10:29:10.704Z,1009.82
2018-03-20T10:30:11.331Z,1009.81
2018-03-20T10:31:11.926Z,1009.85
2018-03-20T10:32:12.603Z,1009.81
2018-03-20T10:33:13.284Z,1009.87
2018-03-20T10:34:14.000Z,1009.85
2018-03-20T10:35:14.883Z,1009.84
2018-03-20T10:36:15.527Z,1009.92
2018-03-20T10:37:16.153Z,1009.94
2018-03-20T10:38:16.820Z,1010.03
2018-03-20T10:39:17.463Z,1009.96
2018-03-20T10:40:18.145Z,1009.94
2018-03-20T10:41:18.766Z,1010.04
2018-03-20T10:42:19.734Z,1009.98
2018-03-20T10:43:20.671Z,1010.04
2018-03-20T10:44:21.372Z,1010.01
2018-03-20T10:45:22.043Z,1010.00
2018-03-20T10:46:22.693Z,1010.04
2018-03-20T10:47:23.361Z,1010.07
2018-03-20T10:48:23.964Z,1009.99
2018-03-20T10:49:24.659Z,1010.11
2018-03-20T10:50:25.529Z,1010.09
2018-03-20T10:51:26.201Z,1010.09
2018-03-20T10:52:26.896Z,1010.22
2018-03-20T10:53:27.541Z,1010.13
2018-03-20T10:54:28.222Z,1010.16
2018-03-20T10:55:28.896Z,1010.08
2018-03-20T10:56:29.543Z,1010.10
2018-03-20T10:57:30.189Z,1010.13
2018-03-20T10:58:30.876Z,1010.14
2018-03-20T10:59:31.533Z,1010.12
2018-03-20T11:00:32.221Z,1010.17
2018-03-20T11:01:32.978Z,1010.17
2018-03-20T11:02:33.471Z,1010.14
2018-03-20T11:03:34.160Z,1010.10
2018-03-20T11:04:34.842Z,1010.13
2018-03-20T11:05:35.496Z,1010.10
2018-03-20T11:06:36.164Z,1010.14
2018-03-20T11:07:36.721Z,1010.20
2018-03-20T11:08:37.442Z,1010.21
2018-03-20T11:09:38.107Z,1010.16
2018-03-20T11:10:38.818Z,1010.18
2018-03-20T11:11:39.459Z,1010.19
2018-03-20T11:12:40.167Z,1010.21
2018-03-20T11:13:40.843Z,1010.22
2018-03-20T11:14:41.493Z,1010.17
2018-03-20T11:15:42.145Z,1010.18
2018-03-20T11:16:42.828Z,1010.22
2018-03-20T11:17:43.700Z,1010.26
2018-03-20T11:18:44.412Z,1010.30
2018-03-20T11:19:45.091Z,1010.32
2018-03-20T11:20:45.749Z,1010.32
2018-03-20T11:21:46.396Z,1010.24
2018-03-20T11:22:47.092Z,1010.29
2018-03-20T11:23:47.732Z,1010.29
2018-03-20T11:24:48.410Z,1010.30
2018-03-20T11:25:49.077Z,1010.27
2018-03-20T11:26:49.691Z,1010.28
2018-03-20T11:27:50.390Z,1010.29
2018-03-20T11:28:51.243Z,1010.29
2018-03-20T11:29:52.243Z,1010.24
2018-03-20T11:30:52.904Z,1010.27
2018-03-20T11:31:53.530Z,1010.28
2018-03-20T11:32:54.190Z,1010.28
2018-03-20T11:33:54.869Z,1010.32
2018-03-20T11:34:55.551Z,1010.32
2018-03-20T11:35:56.221Z,1010.37
2018-03-20T11:36:56.885Z,1010.35
2018-03-20T11:37:57.631Z,1010.36
2018-03-20T11:38:58.333Z,1010.32
2018-03-20T11:39:59.004Z,1010.39
2018-03-20T11:40:59.616Z,1010.33
2018-03-20T11:42:00.366Z,1010.37
2018-03-20T11:43:01.035Z,1010.31
2018-03-20T11:44:01.724Z,1010.32
2018-03-20T11:45:02.552Z,1010.34
2018-03-20T11:46:03.251Z,1010.41
2018-03-20T11:47:03.845Z,1010.38
2018-03-20T11:48:04.541Z,1010.42
2018-03-20T11:49:05.219Z,1010.42
2018-03-20T11:50:05.883Z,1010.41
2018-03-20T11:51:06.503Z,1010.40
2018-03-20T11:52:07.146Z,1010.46
2018-03-20T11:53:07.897Z,1010.43
2018-03-20T11:54:08.629Z,1010.43
2018-03-20T11:55:09.246Z,1010.48
2018-03-20T11:56:09.837Z,1010.38
2018-03-20T11:57:10.512Z,1010.45
2018-03-20T11:58:11.164Z,1010.58
2018-03-20T11:59:11.836Z,1010.55
2018-03-20T12:00:12.689Z,1010.58
2018-03-20T12:01:13.334Z,1010.55
2018-03-20T12:02:13.945Z,1010.54
2018-03-20T12:03:14.674Z,1010.54
2018-03-20T12:04:15.313Z,1010.53
2018-03-20T12:05:16.077Z,1010.60
2018-03-20T12:06:16.764Z,1010.51
2018-03-20T12:07:17.527Z,1010.55
2018-03-20T12:08:18.239Z,1010.52
2018-03-20T12:09:18.867Z,1010.55
2018-03-20T12:10:19.553Z,1010.60
2018-03-20T12:11:20.230Z,1010.60
2018-03-20T12:12:20.914Z,1010.57
2018-03-20T12:13:21.590Z,1010.60